createdAt,value
2019-02-28T00:00:03.164Z,72.60
2019-02-28T00:02:53.988Z,77.08
2019-02-28T00:10:01.999Z,75.80
2019-02-28T00:12:59.311Z,73.55
2019-02-28T00:16:00.179Z,73.95
2019-02-28T00:18:42.170Z,72.00
2019-02-28T00:21:19.016Z,78.97
2019-02-28T00:23:57.580Z,71.85
2019-02-28T00:26:36.915Z,67.17
2019-02-28T00:29:16.640Z,68.52
2019-02-28T00:31:56.462Z,73.40
2019-02-28T00:34:36.328Z,70.40
2019-02-28T00:37:15.207Z,65.35
2019-02-28T00:39:53.410Z,70.85
2019-02-28T00:42:50.810Z,65.75
2019-02-28T00:46:12.162Z,67.90
2019-02-28T00:48:59.906Z,65.90
2019-02-28T00:51:38.061Z,70.35
2019-02-28T00:54:23.296Z,70.40
2019-02-28T00:57:09.222Z,69.92
2019-02-28T01:07:00.798Z,68.78
2019-02-28T01:10:13.405Z,71.80
2019-02-28T01:20:58.030Z,65.72
2019-02-28T01:23:53.357Z,62.38
2019-02-28T01:26:32.465Z,65.10
2019-02-28T01:29:19.289Z,59.65
2019-02-28T01:32:04.422Z,62.98
2019-02-28T01:34:40.500Z,58.83
2019-02-28T01:37:17.312Z,68.20
2019-02-28T01:39:53.224Z,60.08
2019-02-28T01:42:28.956Z,63.23
2019-02-28T01:45:07.035Z,67.45
2019-02-28T01:47:44.794Z,63.20
2019-02-28T01:50:20.753Z,59.75
2019-02-28T01:52:56.662Z,60.28
2019-02-28T01:55:32.557Z,65.75
2019-02-28T01:58:08.399Z,64.05
2019-02-28T02:00:44.272Z,70.05
2019-02-28T02:03:20.109Z,68.35
2019-02-28T02:05:55.972Z,67.50
2019-02-28T02:08:31.820Z,70.35
2019-02-28T02:11:07.676Z,65.52
2019-02-28T02:13:43.536Z,63.65
2019-02-28T02:16:19.400Z,68.87
2019-02-28T02:18:55.236Z,62.43
2019-02-28T02:21:31.480Z,69.55
2019-02-28T02:24:08.585Z,68.37
2019-02-28T02:26:45.154Z,72.08
2019-02-28T02:29:21.719Z,77.95
2019-02-28T02:32:01.065Z,84.28
2019-02-28T02:34:35.053Z,74.72
2019-02-28T02:37:10.934Z,78.80
2019-02-28T02:39:50.214Z,82.85
2019-02-28T02:42:31.367Z,71.60
2019-02-28T02:45:09.585Z,66.15
2019-02-28T02:47:45.709Z,70.42
2019-02-28T02:50:21.459Z,66.42
2019-02-28T02:52:57.314Z,68.92
2019-02-28T02:55:33.577Z,65.95
2019-02-28T02:58:09.431Z,75.25
2019-02-28T03:00:49.747Z,67.82
2019-02-28T03:03:22.715Z,64.22
2019-02-28T03:05:58.536Z,67.40
2019-02-28T03:08:36.359Z,67.85
2019-02-28T03:11:11.986Z,61.73
2019-02-28T03:13:48.237Z,64.05
2019-02-28T03:16:24.111Z,63.87
2019-02-28T03:18:59.952Z,60.43
2019-02-28T03:21:35.703Z,68.40
2019-02-28T03:24:15.286Z,67.92
2019-02-28T03:26:51.322Z,64.80
2019-02-28T03:29:27.161Z,64.40
2019-02-28T03:32:02.911Z,68.17
2019-02-28T03:34:39.197Z,76.20
2019-02-28T03:37:15.036Z,67.87
2019-02-28T03:39:50.881Z,72.32
2019-02-28T03:42:28.953Z,61.68
2019-02-28T03:45:06.340Z,65.35
2019-02-28T03:47:42.039Z,65.92
2019-02-28T03:50:22.038Z,64.30
2019-02-28T03:52:55.480Z,62.20
2019-02-28T03:55:31.233Z,68.17
2019-02-28T03:58:07.190Z,63.33
2019-02-28T04:00:42.983Z,71.72
2019-02-28T04:03:18.786Z,59.53
2019-02-28T04:05:54.633Z,61.73
2019-02-28T04:08:30.844Z,63.58
2019-02-28T04:11:07.178Z,64.07
2019-02-28T04:13:43.039Z,61.95
2019-02-28T04:16:18.888Z,66.70
2019-02-28T04:18:54.729Z,66.25
2019-02-28T04:21:30.584Z,61.95
2019-02-28T04:24:12.705Z,64.05
2019-02-28T04:26:43.922Z,68.57
2019-02-28T04:29:19.774Z,61.75
2019-02-28T04:31:57.867Z,66.87
2019-02-28T04:34:33.032Z,62.62
2019-02-28T04:37:09.744Z,67.35
2019-02-28T04:39:45.665Z,66.50
2019-02-28T04:42:21.502Z,64.17
2019-02-28T04:45:09.170Z,59.65
2019-02-28T04:47:47.352Z,72.65
2019-02-28T04:50:23.103Z,74.20
2019-02-28T04:52:58.873Z,81.47
2019-02-28T04:55:37.313Z,71.50
2019-02-28T04:58:12.068Z,68.12
2019-02-28T05:00:47.843Z,66.27
2019-02-28T05:03:27.998Z,58.50
2019-02-28T05:06:02.422Z,79.87
2019-02-28T05:08:38.971Z,73.45
2019-02-28T05:11:15.586Z,64.58
2019-02-28T05:13:51.533Z,64.67
2019-02-28T05:16:27.278Z,55.05
2019-02-28T05:19:03.079Z,63.80
2019-02-28T05:21:38.892Z,58.02
2019-02-28T05:24:14.730Z,58.35
2019-02-28T05:26:50.593Z,51.28
2019-02-28T05:29:26.432Z,58.50
2019-02-28T05:32:02.204Z,50.38
2019-02-28T05:34:38.159Z,50.52
2019-02-28T05:37:13.898Z,47.78
2019-02-28T05:39:50.259Z,47.13
2019-02-28T05:42:28.895Z,45.15
2019-02-28T05:45:11.430Z,49.15
2019-02-28T05:47:47.531Z,43.08
2019-02-28T05:50:23.387Z,44.73
2019-02-28T05:52:59.151Z,50.05
2019-02-28T05:55:34.936Z,44.23
2019-02-28T05:58:10.664Z,38.00
2019-02-28T06:00:46.460Z,39.95
2019-02-28T06:03:22.328Z,40.95
2019-02-28T06:05:59.366Z,40.38
2019-02-28T06:08:38.699Z,40.73
2019-02-28T06:11:12.699Z,39.70
2019-02-28T06:13:49.679Z,36.30
2019-02-28T06:16:26.152Z,36.10
2019-02-28T06:19:04.577Z,38.95
2019-02-28T06:21:39.609Z,38.50
2019-02-28T06:24:15.451Z,36.05
2019-02-28T06:26:51.314Z,36.33
2019-02-28T06:29:27.567Z,36.93
2019-02-28T06:32:03.432Z,42.48
2019-02-28T06:34:39.496Z,38.90
2019-02-28T06:37:17.790Z,35.17
2019-02-28T06:39:54.775Z,39.25
2019-02-28T06:42:30.650Z,34.63
2019-02-28T06:45:09.757Z,34.18
2019-02-28T06:47:49.639Z,38.48
2019-02-28T06:50:23.001Z,42.53
2019-02-28T06:52:59.378Z,38.38
2019-02-28T06:55:37.268Z,43.75
2019-02-28T06:58:13.133Z,30.68
2019-02-28T07:00:50.429Z,36.70
2019-02-28T07:03:26.363Z,38.17
2019-02-28T07:06:02.218Z,36.50
2019-02-28T07:08:38.077Z,34.70
2019-02-28T07:11:13.928Z,35.20
2019-02-28T07:13:49.679Z,28.73
2019-02-28T07:16:25.555Z,28.95
2019-02-28T07:19:01.588Z,29.07
2019-02-28T07:21:42.983Z,31.85
2019-02-28T07:24:15.055Z,31.23
2019-02-28T07:26:52.209Z,28.32
2019-02-28T07:29:28.414Z,32.40
2019-02-28T07:32:04.236Z,28.85
2019-02-28T07:34:40.198Z,35.23
2019-02-28T07:37:18.878Z,39.95
2019-02-28T07:39:55.192Z,36.33
2019-02-28T07:42:33.671Z,37.28
2019-02-28T07:45:12.172Z,32.93
2019-02-28T07:47:51.765Z,34.75
2019-02-28T07:50:25.663Z,31.35
2019-02-28T07:53:01.526Z,32.78
2019-02-28T07:55:38.396Z,30.75
2019-02-28T07:58:14.259Z,32.53
2019-02-28T08:00:52.707Z,23.70
2019-02-28T08:03:27.504Z,20.62
2019-02-28T08:06:04.865Z,27.87
2019-02-28T08:08:40.852Z,25.48
2019-02-28T08:11:19.961Z,23.92
2019-02-28T08:13:55.522Z,22.93
2019-02-28T08:16:34.057Z,28.27
2019-02-28T08:19:09.075Z,25.52
2019-02-28T08:21:50.294Z,19.87
2019-02-28T08:24:22.636Z,26.65
2019-02-28T08:26:58.914Z,28.57
2019-02-28T08:29:34.745Z,24.50
2019-02-28T08:32:10.596Z,30.72
2019-02-28T08:34:46.989Z,22.48
2019-02-28T08:37:23.846Z,24.18
2019-02-28T08:39:59.691Z,23.25
2019-02-28T08:42:38.681Z,26.60
2019-02-28T08:45:15.087Z,27.17
2019-02-28T08:47:55.455Z,28.42
2019-02-28T08:50:28.640Z,28.95
2019-02-28T08:53:06.001Z,25.05
2019-02-28T08:55:44.317Z,28.50
2019-02-28T08:58:19.281Z,30.57
2019-02-28T09:00:55.957Z,35.48
2019-02-28T09:03:31.806Z,37.15
2019-02-28T09:06:07.601Z,59.05
2019-02-28T09:08:43.615Z,41.55
2019-02-28T09:11:21.077Z,31.73
2019-02-28T09:13:57.061Z,27.25
2019-02-28T09:16:32.914Z,31.10
2019-02-28T09:19:08.876Z,29.60
2019-02-28T09:21:44.728Z,31.30
2019-02-28T09:24:20.686Z,36.98
2019-02-28T09:26:56.541Z,30.55
2019-02-28T09:29:32.381Z,31.02
2019-02-28T09:32:10.201Z,33.30
2019-02-28T09:34:45.844Z,32.93
2019-02-28T09:37:21.698Z,41.53
2019-02-28T09:39:57.518Z,36.48
2019-02-28T09:42:33.292Z,41.77
2019-02-28T09:45:14.364Z,35.98
2019-02-28T09:47:50.215Z,40.50
2019-02-28T09:50:26.088Z,40.70
2019-02-28T09:53:01.946Z,41.10
2019-02-28T09:55:39.679Z,39.53
2019-02-28T09:58:15.383Z,38.28
2019-02-28T10:00:51.337Z,43.78
2019-02-28T10:03:27.202Z,40.92
2019-02-28T10:06:03.046Z,43.68
2019-02-28T10:08:39.340Z,40.20
2019-02-28T10:11:15.168Z,39.80
2019-02-28T10:13:53.127Z,40.80
2019-02-28T10:16:28.918Z,42.83
2019-02-28T10:19:05.278Z,43.05
2019-02-28T10:21:41.148Z,43.45
2019-02-28T10:24:17.100Z,46.10
2019-02-28T10:26:52.943Z,43.65
2019-02-28T10:29:28.812Z,43.90
2019-02-28T10:32:06.148Z,42.83
2019-02-28T10:34:43.894Z,45.73
2019-02-28T10:37:22.838Z,40.78
2019-02-28T10:39:57.349Z,44.80
2019-02-28T10:42:33.198Z,40.88
2019-02-28T10:45:11.918Z,44.50
2019-02-28T10:47:47.772Z,46.85
2019-02-28T10:50:31.984Z,42.80
2019-02-28T10:53:06.367Z,40.33
2019-02-28T10:55:42.499Z,50.20
2019-02-28T10:58:18.346Z,47.85
2019-02-28T11:00:54.147Z,45.17
2019-02-28T11:03:32.306Z,44.25
2019-02-28T11:06:07.551Z,44.30
2019-02-28T11:08:44.501Z,45.20
2019-02-28T11:11:20.898Z,51.57
2019-02-28T11:13:57.717Z,45.15
2019-02-28T11:16:33.539Z,41.40
2019-02-28T11:19:09.388Z,46.13
2019-02-28T11:21:45.241Z,41.70
2019-02-28T11:24:23.652Z,35.90
2019-02-28T11:26:58.691Z,40.75
2019-02-28T11:29:35.449Z,40.35
2019-02-28T11:32:12.137Z,38.70
2019-02-28T11:34:48.641Z,34.38
2019-02-28T11:37:26.500Z,35.08
2019-02-28T11:40:05.456Z,31.37
2019-02-28T11:42:40.160Z,37.45
2019-02-28T11:45:35.973Z,32.73
2019-02-28T11:48:18.910Z,26.23
2019-02-28T11:50:51.896Z,26.65
2019-02-28T11:53:27.743Z,26.60
2019-02-28T11:56:03.603Z,23.40
2019-02-28T11:58:39.466Z,25.68
2019-02-28T12:01:15.816Z,26.65
2019-02-28T12:03:51.679Z,26.05
2019-02-28T12:06:27.538Z,27.98
2019-02-28T12:09:04.204Z,24.20
2019-02-28T12:11:40.360Z,24.77
2019-02-28T12:14:16.207Z,25.48
2019-02-28T12:16:53.573Z,28.05
2019-02-28T12:19:29.557Z,23.10
2019-02-28T12:22:05.416Z,24.18
2019-02-28T12:24:41.284Z,28.57
2019-02-28T12:27:17.114Z,23.55
2019-02-28T12:29:52.971Z,24.40
2019-02-28T12:32:28.832Z,29.18
2019-02-28T12:35:05.824Z,20.43
2019-02-28T12:37:42.689Z,22.13
2019-02-28T12:40:21.149Z,19.73
2019-02-28T12:42:56.952Z,21.02
2019-02-28T12:45:35.274Z,22.42
2019-02-28T12:48:13.747Z,22.37
2019-02-28T12:50:48.818Z,18.83
2019-02-28T12:53:25.489Z,21.90
2019-02-28T12:56:01.557Z,23.55
2019-02-28T12:58:39.185Z,24.52
2019-02-28T13:01:14.905Z,28.40
2019-02-28T13:03:54.679Z,25.90
2019-02-28T13:06:28.246Z,25.15
2019-02-28T13:09:05.221Z,29.10
2019-02-28T13:11:41.578Z,22.40
2019-02-28T13:14:17.439Z,26.30
2019-02-28T13:16:54.517Z,24.10
2019-02-28T13:19:31.092Z,24.10
2019-02-28T13:22:07.019Z,23.18
2019-02-28T13:24:46.604Z,24.43
2019-02-28T13:27:21.850Z,24.32
2019-02-28T13:29:57.726Z,27.37
2019-02-28T13:32:33.857Z,24.25
2019-02-28T13:35:13.915Z,24.87
2019-02-28T13:37:50.777Z,25.00
2019-02-28T13:40:26.621Z,25.35
2019-02-28T13:43:02.379Z,25.15
2019-02-28T13:45:39.904Z,26.70
2019-02-28T13:48:25.378Z,27.98
2019-02-28T13:50:53.218Z,25.08
2019-02-28T13:53:30.801Z,27.98
2019-02-28T13:56:08.404Z,30.17
2019-02-28T13:58:44.269Z,26.73
2019-02-28T14:01:20.398Z,24.60
2019-02-28T14:03:56.386Z,25.23
2019-02-28T14:06:32.238Z,24.92
2019-02-28T14:09:08.399Z,24.67
2019-02-28T14:11:45.122Z,23.25
2019-02-28T14:14:22.256Z,23.40
2019-02-28T14:17:01.278Z,30.75
2019-02-28T14:19:36.728Z,24.50
2019-02-28T14:22:12.587Z,29.00
2019-02-28T14:24:48.442Z,26.65
2019-02-28T14:27:25.293Z,27.98
2019-02-28T14:30:04.136Z,25.32
2019-02-28T14:32:42.396Z,30.10
2019-02-28T14:35:23.162Z,30.72
2019-02-28T14:37:58.962Z,35.03
2019-02-28T14:40:34.828Z,35.33
2019-02-28T14:43:10.687Z,29.90
2019-02-28T14:45:47.349Z,35.45
2019-02-28T14:48:23.520Z,30.97
2019-02-28T14:51:00.600Z,33.13
2019-02-28T14:53:36.467Z,32.83
2019-02-28T14:56:12.307Z,34.10
2019-02-28T14:58:48.171Z,34.30
2019-02-28T15:01:24.328Z,31.30
2019-02-28T15:04:00.169Z,33.10
2019-02-28T15:06:36.331Z,32.15
2019-02-28T15:09:14.860Z,32.55
2019-02-28T15:11:50.702Z,34.27
2019-02-28T15:14:26.555Z,34.05
2019-02-28T15:17:06.718Z,34.88
2019-02-28T15:19:40.312Z,31.93
2019-02-28T15:22:18.971Z,38.02
2019-02-28T15:24:54.678Z,42.33
2019-02-28T15:27:30.539Z,35.63
2019-02-28T15:30:11.954Z,39.65
2019-02-28T15:32:50.664Z,44.08
2019-02-28T15:35:25.208Z,36.15
2019-02-28T15:38:01.947Z,45.58
2019-02-28T15:40:40.626Z,48.38
2019-02-28T15:43:18.252Z,35.80
2019-02-28T15:45:54.190Z,37.75
2019-02-28T15:48:31.425Z,49.53
2019-02-28T15:51:07.545Z,44.48
2019-02-28T15:53:46.867Z,45.38
2019-02-28T15:56:21.798Z,37.40
2019-02-28T15:58:57.691Z,35.80
2019-02-28T16:01:33.483Z,38.33
2019-02-28T16:04:09.285Z,44.98
2019-02-28T16:06:45.024Z,38.48
2019-02-28T16:09:21.445Z,40.50
2019-02-28T16:11:58.036Z,60.50
2019-02-28T16:14:34.785Z,59.98
2019-02-28T16:17:11.462Z,43.85
2019-02-28T16:19:47.228Z,45.00
2019-02-28T16:22:22.986Z,48.35
2019-02-28T16:24:58.947Z,45.05
2019-02-28T16:27:34.704Z,57.60
2019-02-28T16:30:13.256Z,45.60
2019-02-28T16:32:50.137Z,45.35
2019-02-28T16:35:26.023Z,46.63
2019-02-28T16:38:02.372Z,59.48
2019-02-28T16:40:38.170Z,60.38
2019-02-28T16:43:13.935Z,50.00
2019-02-28T16:45:50.773Z,50.95
2019-02-28T16:48:26.644Z,50.28
2019-02-28T16:51:02.499Z,50.60
2019-02-28T16:53:38.243Z,57.75
2019-02-28T16:56:15.920Z,52.62
2019-02-28T16:58:53.788Z,56.48
2019-02-28T17:01:29.750Z,55.67
2019-02-28T17:04:06.487Z,57.78
2019-02-28T17:06:42.222Z,54.58
2019-02-28T17:09:26.692Z,55.05
2019-02-28T17:12:04.746Z,61.73
2019-02-28T17:14:40.704Z,58.17
2019-02-28T17:17:21.749Z,61.98
2019-02-28T17:19:57.549Z,60.50
2019-02-28T17:22:33.332Z,62.25
2019-02-28T17:25:09.039Z,77.90
2019-02-28T17:27:50.234Z,73.33
2019-02-28T17:30:27.649Z,76.12
2019-02-28T17:33:05.804Z,70.75
2019-02-28T17:35:40.965Z,63.98
2019-02-28T17:38:16.746Z,71.57
2019-02-28T17:40:53.508Z,69.50
2019-02-28T17:43:29.354Z,69.37
2019-02-28T17:46:05.203Z,73.02
2019-02-28T17:48:58.857Z,67.32
2019-02-28T17:51:43.437Z,70.85
2019-02-28T17:54:41.791Z,75.65
2019-02-28T17:57:20.604Z,73.10
2019-02-28T18:00:05.147Z,75.67
2019-02-28T18:02:46.106Z,89.67
2019-02-28T18:05:42.710Z,105.90
2019-02-28T18:08:37.753Z,90.75
2019-02-28T18:11:22.551Z,95.60
2019-02-28T18:14:19.327Z,102.27
2019-02-28T18:17:20.245Z,91.65
2019-02-28T18:20:16.804Z,94.28
2019-02-28T18:23:24.866Z,111.72
2019-02-28T18:26:10.886Z,87.02
2019-02-28T18:29:01.991Z,77.55
2019-02-28T18:31:38.060Z,79.00
2019-02-28T18:34:16.909Z,85.97
2019-02-28T18:36:51.320Z,85.25
2019-02-28T18:39:27.089Z,81.85
2019-02-28T18:42:02.888Z,78.30
2019-02-28T18:44:41.062Z,77.27
2019-02-28T18:47:16.277Z,92.25
2019-02-28T18:49:52.064Z,96.57
2019-02-28T18:52:27.938Z,92.12
2019-02-28T18:55:06.345Z,93.90
2019-02-28T18:57:41.183Z,112.10
2019-02-28T19:00:18.701Z,92.13
2019-02-28T19:02:54.486Z,93.12
2019-02-28T19:05:30.281Z,88.87
2019-02-28T19:08:06.313Z,89.52
2019-02-28T19:10:42.118Z,81.87
2019-02-28T19:13:17.919Z,88.75
2019-02-28T19:15:53.646Z,82.02
2019-02-28T19:18:29.425Z,78.92
2019-02-28T19:21:05.177Z,78.33
2019-02-28T19:23:40.947Z,82.65
2019-02-28T19:26:17.559Z,80.12
2019-02-28T19:28:53.434Z,93.00
2019-02-28T19:31:29.208Z,87.02
2019-02-28T19:34:04.969Z,95.60
2019-02-28T19:36:40.696Z,87.85
2019-02-28T19:39:16.459Z,90.77
2019-02-28T19:41:52.247Z,86.95
2019-02-28T19:44:28.068Z,87.72
2019-02-28T19:47:04.053Z,89.77
2019-02-28T19:49:39.864Z,82.30
2019-02-28T19:52:15.595Z,83.05
2019-02-28T19:54:51.800Z,93.03
2019-02-28T19:57:27.563Z,83.00
2019-02-28T20:00:10.014Z,85.95
2019-02-28T20:02:45.844Z,86.22
2019-02-28T20:05:21.604Z,92.53
2019-02-28T20:07:57.441Z,87.02
2019-02-28T20:10:33.298Z,90.28
2019-02-28T20:13:09.157Z,88.72
2019-02-28T20:15:44.996Z,94.60
2019-02-28T20:18:21.985Z,98.20
2019-02-28T20:20:57.846Z,92.17
2019-02-28T20:23:33.688Z,84.10
2019-02-28T20:26:09.538Z,96.50
2019-02-28T20:28:45.400Z,85.20
2019-02-28T20:31:21.693Z,93.03
2019-02-28T20:33:57.445Z,96.60
2019-02-28T20:36:33.200Z,87.60
2019-02-28T20:39:10.019Z,83.90
2019-02-28T20:41:46.097Z,87.45
2019-02-28T20:44:21.844Z,88.87
2019-02-28T20:46:57.628Z,82.65
2019-02-28T20:49:33.360Z,91.02
2019-02-28T20:52:10.196Z,90.30
2019-02-28T20:54:47.066Z,86.87
2019-02-28T20:57:23.375Z,89.97
2019-02-28T20:59:59.137Z,94.72
2019-02-28T21:02:35.097Z,83.70
2019-02-28T21:05:10.950Z,92.92
2019-02-28T21:07:46.893Z,85.57
2019-02-28T21:10:22.961Z,88.93
2019-02-28T21:12:59.021Z,89.45
2019-02-28T21:15:36.004Z,80.20
2019-02-28T21:18:12.050Z,85.97
2019-02-28T21:20:48.419Z,86.72
2019-02-28T21:23:24.691Z,88.25
2019-02-28T21:26:00.547Z,83.72
2019-02-28T21:28:36.700Z,88.92
2019-02-28T21:31:13.460Z,93.10
2019-02-28T21:33:49.219Z,92.35
2019-02-28T21:36:25.173Z,88.45
2019-02-28T21:39:01.135Z,87.78
2019-02-28T21:41:38.528Z,92.55
2019-02-28T21:44:14.494Z,90.85
2019-02-28T21:46:50.333Z,98.07
2019-02-28T21:49:26.192Z,89.52
2019-02-28T21:52:02.554Z,94.30
2019-02-28T21:54:38.420Z,99.60
2019-02-28T21:57:15.250Z,102.00
2019-02-28T21:59:51.141Z,104.23
2019-02-28T22:02:27.001Z,90.62
2019-02-28T22:05:02.848Z,101.95
2019-02-28T22:07:38.707Z,98.65
2019-02-28T22:10:16.932Z,106.90
2019-02-28T22:12:53.187Z,100.20
2019-02-28T22:15:41.418Z,103.17
2019-02-28T22:18:45.335Z,94.28
2019-02-28T22:21:23.581Z,102.15
2019-02-28T22:23:59.509Z,103.38
2019-02-28T22:26:49.736Z,107.35
2019-02-28T22:29:40.268Z,105.75
2019-02-28T22:32:25.057Z,110.15
2019-02-28T22:35:02.656Z,103.65
2019-02-28T22:37:38.499Z,111.57
2019-02-28T22:40:14.359Z,102.20
2019-02-28T22:42:50.211Z,106.67
2019-02-28T22:45:26.063Z,107.80
2019-02-28T22:48:01.975Z,104.78
2019-02-28T22:50:38.185Z,105.50
2019-02-28T22:53:14.029Z,108.30
2019-02-28T22:55:49.792Z,109.65
2019-02-28T22:58:25.750Z,103.95
2019-02-28T23:01:14.574Z,101.72
2019-02-28T23:03:49.945Z,103.15
2019-02-28T23:06:25.796Z,128.38
2019-02-28T23:09:01.674Z,143.00
2019-02-28T23:11:39.048Z,131.82
2019-02-28T23:14:14.899Z,123.15
2019-02-28T23:16:50.760Z,150.40
2019-02-28T23:19:26.607Z,132.40
2019-02-28T23:22:02.665Z,110.60
2019-02-28T23:24:38.514Z,108.63
2019-02-28T23:27:16.127Z,109.07
2019-02-28T23:29:57.697Z,108.45
2019-02-28T23:32:36.924Z,99.92
2019-02-28T23:35:19.242Z,104.20
2019-02-28T23:37:55.099Z,105.27
2019-02-28T23:40:30.949Z,108.17
2019-02-28T23:43:06.811Z,108.83
2019-02-28T23:45:42.661Z,108.72
2019-02-28T23:48:18.418Z,102.53
2019-02-28T23:50:54.265Z,116.28
2019-02-28T23:53:30.142Z,118.75
2019-02-28T23:56:06.081Z,122.13
2019-02-28T23:58:43.263Z,123.82
